createdAt,value
2019-04-19T00:01:15.804Z,12.72
2019-04-19T00:03:44.092Z,12.73
2019-04-19T00:06:18.325Z,12.87
2019-04-19T00:09:00.052Z,12.98
2019-04-19T00:11:18.887Z,13.00
2019-04-19T00:13:37.148Z,12.91
2019-04-19T00:16:04.651Z,12.96
2019-04-19T00:18:31.294Z,12.83
2019-04-19T00:21:19.351Z,12.65
2019-04-19T00:23:34.857Z,12.47
2019-04-19T00:25:55.751Z,12.37
2019-04-19T00:28:35.312Z,12.44
2019-04-19T00:30:59.229Z,12.51
2019-04-19T00:33:28.302Z,12.32
2019-04-19T00:35:49.625Z,12.34
2019-04-19T00:38:35.171Z,12.39
2019-04-19T00:41:03.080Z,12.32
2019-04-19T00:43:34.152Z,12.38
2019-04-19T00:46:03.331Z,12.38
2019-04-19T00:48:30.082Z,12.34
2019-04-19T00:50:52.980Z,12.24
2019-04-19T00:53:21.698Z,12.13
2019-04-19T00:55:49.637Z,12.15
2019-04-19T00:58:12.240Z,12.24
2019-04-19T01:00:36.781Z,12.23
2019-04-19T01:03:02.649Z,12.39
2019-04-19T01:05:31.975Z,12.33
2019-04-19T01:08:00.834Z,12.32
2019-04-19T01:10:38.227Z,12.33
2019-04-19T01:13:08.077Z,12.21
2019-04-19T01:15:31.863Z,12.11
2019-04-19T01:18:10.697Z,12.05
2019-04-19T01:20:20.691Z,11.90
2019-04-19T01:22:55.817Z,11.71
2019-04-19T01:25:22.684Z,11.71
2019-04-19T01:27:44.883Z,11.51
2019-04-19T01:30:12.552Z,11.41
2019-04-19T01:32:47.031Z,11.37
2019-04-19T01:35:12.955Z,11.31
2019-04-19T01:37:37.000Z,11.35
2019-04-19T01:40:18.524Z,11.42
2019-04-19T01:42:50.722Z,11.35
2019-04-19T01:45:15.340Z,11.31
2019-04-19T01:47:47.740Z,11.13
2019-04-19T01:50:09.724Z,11.05
2019-04-19T01:55:09.013Z,10.78
2019-04-19T01:57:24.347Z,10.83
2019-04-19T01:59:55.410Z,11.07
2019-04-19T02:02:24.002Z,11.20
2019-04-19T02:04:53.012Z,11.35
2019-04-19T02:07:22.301Z,11.23
2019-04-19T02:09:59.192Z,11.25
2019-04-19T02:12:26.182Z,11.29
2019-04-19T02:14:50.605Z,11.15
2019-04-19T02:17:13.649Z,10.97
2019-04-19T02:19:47.328Z,10.84
2019-04-19T02:22:17.466Z,10.69
2019-04-19T02:24:42.297Z,10.64
2019-04-19T02:27:08.221Z,10.79
2019-04-19T02:29:35.087Z,10.78
2019-04-19T02:34:54.584Z,10.75
2019-04-19T02:49:51.513Z,10.97
2019-04-19T02:52:22.174Z,10.73
2019-04-19T02:54:54.126Z,10.59
2019-04-19T02:57:22.963Z,10.53
2019-04-19T02:59:47.790Z,10.61
2019-04-19T03:02:28.751Z,10.69
2019-04-19T03:04:53.787Z,10.69
2019-04-19T03:06:49.165Z,10.69
2019-04-19T03:09:11.332Z,10.57
2019-04-19T03:11:53.312Z,10.44
2019-04-19T03:14:20.635Z,10.55
2019-04-19T03:16:57.908Z,10.55
2019-04-19T03:19:14.781Z,10.58
2019-04-19T03:21:46.879Z,10.54
2019-04-19T03:24:15.357Z,10.48
2019-04-19T03:26:45.928Z,10.39
2019-04-19T03:29:08.879Z,10.51
2019-04-19T03:32:02.134Z,10.46
2019-04-19T03:34:31.517Z,10.48
2019-04-19T03:36:42.629Z,10.40
2019-04-19T03:39:18.011Z,10.23
2019-04-19T03:44:10.153Z,10.28
2019-04-19T03:46:46.102Z,10.18
2019-04-19T03:49:09.300Z,10.27
2019-04-19T03:51:28.816Z,10.27
2019-04-19T03:54:00.610Z,10.14
2019-04-19T03:56:36.238Z,9.88
2019-04-19T03:58:41.808Z,9.77
2019-04-19T04:01:08.708Z,9.70
2019-04-19T04:03:40.484Z,9.86
2019-04-19T04:06:03.979Z,9.90
2019-04-19T04:08:32.307Z,10.01
2019-04-19T04:11:00.202Z,9.91
2019-04-19T04:13:38.466Z,10.15
2019-04-19T04:16:09.854Z,10.15
2019-04-19T04:18:25.643Z,10.20
2019-04-19T04:20:56.996Z,10.63
2019-04-19T04:23:29.972Z,10.65
2019-04-19T04:25:59.103Z,10.46
2019-04-19T04:28:36.715Z,10.28
2019-04-19T04:30:57.285Z,10.27
2019-04-19T04:33:30.984Z,10.29
2019-04-19T04:35:57.072Z,10.28
2019-04-19T04:38:21.750Z,10.32
2019-04-19T04:40:40.825Z,10.15
2019-04-19T04:43:20.343Z,10.15
2019-04-19T04:46:01.977Z,10.30
2019-04-19T04:48:29.307Z,10.54
2019-04-19T04:50:56.185Z,10.69
2019-04-19T04:53:02.801Z,10.86
2019-04-19T04:55:30.474Z,10.99
2019-04-19T04:58:00.982Z,11.31
2019-04-19T05:00:32.857Z,11.43
2019-04-19T05:03:09.284Z,11.63
2019-04-19T05:05:38.418Z,11.74
2019-04-19T05:08:14.189Z,11.89
2019-04-19T05:10:33.231Z,11.88
2019-04-19T05:15:36.423Z,12.20
2019-04-19T05:18:12.363Z,12.60
2019-04-19T05:20:29.136Z,12.60
2019-04-19T05:22:59.413Z,12.75
2019-04-19T05:25:35.725Z,12.96
2019-04-19T05:27:55.621Z,13.29
2019-04-19T05:30:07.157Z,13.49
2019-04-19T05:32:36.513Z,13.64
2019-04-19T05:35:15.420Z,13.69
2019-04-19T05:37:49.896Z,13.96
2019-04-19T05:40:15.213Z,14.07
2019-04-19T05:42:46.965Z,14.29
2019-04-19T05:45:26.273Z,14.62
2019-04-19T05:47:37.613Z,15.06
2019-04-19T05:50:17.135Z,15.53
2019-04-19T05:52:39.464Z,15.73
2019-04-19T05:54:49.810Z,16.07
2019-04-19T05:57:37.135Z,16.43
2019-04-19T05:59:54.679Z,16.79
2019-04-19T06:02:24.459Z,17.08
2019-04-19T06:05:09.108Z,17.26
2019-04-19T06:07:26.502Z,17.34
2019-04-19T06:09:38.969Z,17.42
2019-04-19T06:12:13.539Z,17.59
2019-04-19T06:14:59.027Z,17.78
2019-04-19T06:17:38.757Z,18.04
2019-04-19T06:20:13.665Z,18.50
2019-04-19T06:22:41.726Z,18.28
2019-04-19T06:25:06.943Z,18.37
2019-04-19T06:27:53.217Z,18.21
2019-04-19T06:30:10.147Z,18.31
2019-04-19T06:32:42.079Z,18.24
2019-04-19T06:35:00.254Z,18.41
2019-04-19T06:37:17.033Z,18.68
2019-04-19T06:39:39.986Z,18.89
2019-04-19T06:42:10.223Z,19.09
2019-04-19T06:45:00.486Z,19.11
2019-04-19T06:47:15.762Z,18.99
2019-04-19T06:49:34.357Z,19.16
2019-04-19T06:52:09.744Z,19.27
2019-04-19T06:54:36.638Z,19.17
2019-04-19T06:57:26.699Z,18.93
2019-04-19T06:59:57.737Z,19.04
2019-04-19T07:02:14.032Z,19.18
2019-04-19T07:04:52.272Z,19.34
2019-04-19T07:07:31.003Z,19.57
2019-04-19T07:10:15.307Z,19.65
2019-04-19T07:12:44.023Z,19.70
2019-04-19T07:15:06.650Z,19.81
2019-04-19T07:17:36.737Z,19.74
2019-04-19T07:20:06.086Z,19.94
2019-04-19T07:22:37.891Z,20.12
2019-04-19T07:25:13.590Z,20.29
2019-04-19T07:27:28.508Z,20.60
2019-04-19T07:29:40.474Z,20.58
2019-04-19T07:32:08.260Z,20.70
2019-04-19T07:34:48.105Z,20.92
2019-04-19T07:37:22.057Z,20.92
2019-04-19T07:40:01.013Z,21.00
2019-04-19T07:42:26.390Z,21.24
2019-04-19T07:44:37.373Z,21.43
2019-04-19T07:47:12.610Z,21.66
2019-04-19T07:49:25.360Z,21.59
2019-04-19T07:52:02.638Z,21.72
2019-04-19T08:09:42.939Z,22.81
2019-04-19T08:12:13.052Z,22.81
2019-04-19T08:32:26.294Z,24.07
2019-04-19T08:35:01.809Z,23.67
2019-04-19T08:37:32.025Z,23.64
2019-04-19T08:40:18.233Z,23.63
2019-04-19T08:42:47.497Z,23.55
2019-04-19T08:45:09.928Z,23.39
2019-04-19T08:47:43.970Z,23.53
2019-04-19T08:50:11.880Z,23.86
2019-04-19T08:52:40.115Z,24.08
2019-04-19T08:55:33.791Z,24.31
2019-04-19T08:57:40.606Z,24.53
2019-04-19T09:00:41.073Z,24.46
2019-04-19T09:02:54.361Z,24.37
2019-04-19T09:05:27.236Z,24.53
2019-04-19T09:07:59.666Z,24.82
2019-04-19T09:10:40.105Z,25.07
2019-04-19T09:13:23.986Z,25.06
2019-04-19T09:15:41.000Z,24.77
2019-04-19T09:21:05.212Z,25.02
2019-04-19T09:23:27.324Z,25.22
2019-04-19T09:25:55.841Z,25.46
2019-04-19T09:28:42.590Z,25.62
2019-04-19T09:31:06.026Z,25.73
2019-04-19T09:33:32.613Z,26.02
2019-04-19T09:36:03.217Z,26.07
2019-04-19T09:38:43.356Z,26.22
2019-04-19T09:43:58.940Z,26.10
2019-04-19T09:46:14.881Z,26.14
2019-04-19T09:49:02.104Z,26.19
2019-04-19T09:51:34.495Z,25.95
2019-04-19T09:54:04.083Z,25.64
2019-04-19T09:59:10.199Z,26.10
2019-04-19T10:01:37.241Z,26.22
2019-04-19T10:04:04.163Z,26.59
2019-04-19T10:06:33.088Z,26.62
2019-04-19T10:09:11.205Z,26.63
2019-04-19T10:11:35.465Z,26.69
2019-04-19T10:14:06.539Z,26.83
2019-04-19T10:16:35.241Z,26.76
2019-04-19T10:19:06.179Z,26.60
2019-04-19T10:21:33.680Z,25.96
2019-04-19T10:24:01.793Z,26.05
2019-04-19T10:26:26.719Z,26.66
2019-04-19T10:28:53.706Z,27.06
2019-04-19T10:31:20.261Z,27.56
2019-04-19T10:33:53.188Z,27.81
2019-04-19T10:36:15.071Z,27.92
2019-04-19T10:38:41.587Z,28.14
2019-04-19T10:41:09.386Z,27.87
2019-04-19T10:43:37.050Z,27.74
2019-04-19T10:46:04.820Z,27.16
2019-04-19T10:48:32.711Z,27.29
2019-04-19T10:50:59.555Z,27.58
2019-04-19T10:53:26.209Z,27.75
2019-04-19T10:55:54.337Z,27.94
2019-04-19T10:58:21.392Z,27.71
2019-04-19T11:00:49.792Z,27.59
2019-04-19T11:03:16.919Z,27.51
2019-04-19T11:05:44.886Z,27.39
2019-04-19T11:08:12.719Z,27.83
2019-04-19T11:10:39.970Z,28.17
2019-04-19T11:15:38.407Z,28.12
2019-04-19T11:18:05.550Z,28.48
2019-04-19T11:20:40.281Z,28.14
2019-04-19T11:23:03.757Z,28.48
2019-04-19T11:25:30.444Z,28.56
2019-04-19T11:27:57.946Z,28.57
2019-04-19T11:30:24.627Z,28.94
2019-04-19T11:32:51.266Z,29.15
2019-04-19T11:35:19.378Z,29.36
2019-04-19T11:37:47.061Z,28.90
2019-04-19T11:40:15.056Z,28.89
2019-04-19T11:42:43.567Z,28.99
2019-04-19T11:45:11.984Z,28.95
2019-04-19T11:47:40.789Z,28.72
2019-04-19T11:50:07.814Z,28.63
2019-04-19T11:52:35.624Z,28.86
2019-04-19T11:55:04.636Z,28.55
2019-04-19T11:57:32.723Z,28.87
2019-04-19T12:00:00.716Z,29.44
2019-04-19T12:02:29.004Z,29.33
2019-04-19T12:04:57.865Z,29.33
2019-04-19T12:07:24.648Z,29.00
2019-04-19T12:09:52.397Z,28.95
2019-04-19T12:12:19.574Z,28.55
2019-04-19T12:14:46.469Z,28.69
2019-04-19T12:17:15.339Z,29.09
2019-04-19T12:19:51.747Z,29.46
2019-04-19T12:22:15.470Z,29.88
2019-04-19T12:24:44.717Z,29.89
2019-04-19T12:27:15.908Z,29.80
2019-04-19T12:29:48.146Z,29.86
2019-04-19T12:32:19.205Z,29.96
2019-04-19T12:34:47.168Z,29.92
2019-04-19T12:37:19.344Z,29.94
2019-04-19T12:39:50.755Z,29.96
2019-04-19T12:42:21.914Z,29.88
2019-04-19T12:44:48.104Z,29.74
2019-04-19T12:47:17.162Z,29.77
2019-04-19T12:49:53.649Z,29.26
2019-04-19T12:52:15.692Z,29.41
2019-04-19T12:54:45.884Z,29.32
2019-04-19T12:57:16.279Z,29.96
2019-04-19T12:59:44.264Z,30.37
2019-04-19T13:02:11.807Z,30.54
2019-04-19T13:04:44.376Z,30.10
2019-04-19T13:07:11.450Z,29.87
2019-04-19T13:09:41.194Z,29.86
2019-04-19T13:12:12.931Z,30.01
2019-04-19T13:14:43.753Z,29.94
2019-04-19T13:17:10.487Z,29.67
2019-04-19T13:19:47.504Z,29.42
2019-04-19T13:22:12.305Z,29.20
2019-04-19T13:24:40.506Z,29.50
2019-04-19T13:27:09.560Z,30.05
2019-04-19T13:29:41.521Z,30.54
2019-04-19T13:32:11.549Z,30.62
2019-04-19T13:34:51.531Z,30.81
2019-04-19T13:37:21.058Z,30.28
2019-04-19T13:39:50.180Z,30.30
2019-04-19T13:42:19.040Z,30.47
2019-04-19T13:44:47.417Z,30.56
2019-04-19T13:47:16.768Z,29.77
2019-04-19T13:49:44.425Z,29.04
2019-04-19T13:52:12.633Z,29.22
2019-04-19T13:54:44.870Z,29.54
2019-04-19T13:57:11.346Z,29.83
2019-04-19T13:59:49.098Z,30.04
2019-04-19T14:02:10.519Z,30.43
2019-04-19T14:04:39.684Z,30.45
2019-04-19T14:07:12.697Z,30.27
2019-04-19T14:09:43.331Z,30.54
2019-04-19T14:12:13.431Z,30.68
2019-04-19T14:14:46.658Z,30.77
2019-04-19T14:20:02.999Z,30.49
2019-04-19T14:22:33.954Z,30.63
2019-04-19T14:25:03.519Z,30.89
2019-04-19T14:27:33.228Z,30.01
2019-04-19T14:30:03.761Z,30.11
2019-04-19T14:32:34.843Z,30.17
2019-04-19T14:35:10.120Z,30.18
2019-04-19T14:37:38.299Z,30.13
2019-04-19T14:40:10.181Z,29.98
2019-04-19T14:42:42.467Z,29.88
2019-04-19T14:45:12.117Z,30.04
2019-04-19T14:47:39.148Z,30.16
2019-04-19T14:50:07.515Z,30.35
2019-04-19T14:52:34.388Z,30.40
2019-04-19T14:55:03.496Z,30.29
2019-04-19T14:57:38.072Z,30.27
2019-04-19T15:00:03.120Z,30.47
2019-04-19T15:02:34.726Z,30.44
2019-04-19T15:05:05.446Z,30.15
2019-04-19T15:07:35.160Z,29.60
2019-04-19T15:10:03.795Z,29.52
2019-04-19T15:12:34.163Z,29.67
2019-04-19T15:15:06.150Z,30.20
2019-04-19T15:17:35.979Z,30.62
2019-04-19T15:20:03.662Z,30.57
2019-04-19T15:22:32.579Z,30.45
2019-04-19T15:25:02.982Z,30.80
2019-04-19T15:27:41.111Z,30.97
2019-04-19T15:30:09.178Z,31.19
2019-04-19T15:32:36.494Z,30.78
2019-04-19T15:35:05.662Z,30.53
2019-04-19T15:37:37.970Z,30.24
2019-04-19T15:40:08.257Z,30.19
2019-04-19T15:42:36.580Z,30.33
2019-04-19T15:45:03.488Z,30.47
2019-04-19T15:47:32.659Z,30.50
2019-04-19T15:50:02.282Z,30.45
2019-04-19T15:52:30.650Z,30.57
2019-04-19T15:54:57.512Z,30.51
2019-04-19T15:57:26.554Z,30.60
2019-04-19T15:59:53.883Z,30.50
2019-04-19T16:02:22.319Z,30.37
2019-04-19T16:04:50.267Z,30.42
2019-04-19T16:07:17.191Z,30.22
2019-04-19T16:09:49.416Z,30.14
2019-04-19T16:12:19.639Z,29.78
2019-04-19T16:14:49.947Z,29.86
2019-04-19T16:17:18.856Z,29.92
2019-04-19T16:19:49.041Z,29.54
2019-04-19T16:22:18.543Z,29.58
2019-04-19T16:24:47.531Z,29.67
2019-04-19T16:27:17.553Z,29.53
2019-04-19T16:29:51.467Z,29.54
2019-04-19T16:32:14.714Z,29.53
2019-04-19T16:37:32.824Z,29.53
2019-04-19T16:40:02.550Z,29.33
2019-04-19T16:42:33.005Z,29.15
2019-04-19T16:45:03.760Z,29.17
2019-04-19T16:47:29.499Z,29.60
2019-04-19T16:49:56.472Z,30.19
2019-04-19T16:52:24.703Z,31.09
2019-04-19T16:54:52.343Z,31.89
2019-04-19T16:57:29.367Z,31.18
2019-04-19T16:59:52.197Z,30.45
2019-04-19T17:02:23.257Z,29.89
2019-04-19T17:04:52.706Z,29.52
2019-04-19T17:07:24.759Z,28.91
2019-04-19T17:09:57.349Z,28.46
2019-04-19T17:12:27.009Z,28.07
2019-04-19T17:14:56.993Z,27.92
2019-04-19T17:17:28.889Z,27.66
2019-04-19T17:19:57.139Z,27.40
2019-04-19T17:22:28.380Z,27.20
2019-04-19T17:24:58.999Z,27.03
2019-04-19T17:27:30.965Z,26.86
2019-04-19T17:30:02.091Z,26.80
2019-04-19T17:32:30.326Z,26.61
2019-04-19T17:35:00.355Z,26.36
2019-04-19T17:37:28.020Z,26.08
2019-04-19T17:39:58.581Z,25.72
2019-04-19T17:42:26.708Z,25.46
2019-04-19T17:44:53.573Z,25.15
2019-04-19T17:47:28.242Z,25.00
2019-04-19T17:49:52.822Z,24.88
2019-04-19T17:52:26.354Z,24.62
2019-04-19T17:55:02.849Z,24.37
2019-04-19T17:57:21.025Z,24.06
2019-04-19T17:59:48.088Z,23.94
2019-04-19T18:02:16.983Z,23.82
2019-04-19T18:04:46.187Z,23.66
2019-04-19T18:07:13.250Z,23.59
2019-04-19T18:12:29.366Z,23.28
2019-04-19T18:14:59.474Z,23.15
2019-04-19T18:31:28.660Z,24.40
2019-04-19T18:49:41.488Z,23.25
2019-04-19T18:52:13.435Z,22.25
2019-04-19T18:54:48.267Z,21.84
2019-04-19T18:57:07.853Z,21.64
2019-04-19T18:59:34.395Z,21.34
2019-04-19T19:02:11.392Z,21.05
2019-04-19T19:04:31.408Z,20.80
2019-04-19T19:06:59.309Z,20.73
2019-04-19T19:09:38.280Z,20.76
2019-04-19T19:12:01.073Z,20.87
2019-04-19T19:14:24.707Z,20.71
2019-04-19T19:16:54.303Z,20.66
2019-04-19T19:19:26.757Z,20.52
2019-04-19T19:21:51.471Z,20.50
2019-04-19T19:24:40.583Z,20.44
2019-04-19T19:26:56.962Z,20.45
2019-04-19T19:29:16.195Z,20.30
2019-04-19T19:31:43.064Z,20.29
2019-04-19T19:34:09.989Z,20.02
2019-04-19T19:36:44.305Z,19.86
2019-04-19T19:42:05.450Z,19.65
2019-04-19T19:42:16.708Z,19.50
2019-04-19T19:44:13.697Z,19.59
2019-04-19T19:46:51.812Z,19.48
2019-04-19T19:51:39.579Z,19.48
2019-04-19T19:54:43.395Z,19.36
2019-04-19T19:56:53.892Z,19.30
2019-04-19T19:59:10.087Z,19.18
2019-04-19T20:01:34.889Z,19.19
2019-04-19T20:03:52.454Z,19.14
2019-04-19T20:06:24.607Z,19.18
2019-04-19T20:08:47.966Z,19.13
2019-04-19T20:11:20.647Z,19.03
2019-04-19T20:13:48.194Z,18.95
2019-04-19T20:16:19.000Z,18.82
2019-04-19T20:18:45.390Z,18.92
2019-04-19T20:21:14.424Z,18.79
2019-04-19T20:23:55.070Z,18.58
2019-04-19T20:26:17.209Z,18.42
2019-04-19T20:28:37.919Z,18.36
2019-04-19T20:31:05.977Z,18.20
2019-04-19T20:33:44.550Z,18.18
2019-04-19T20:36:07.656Z,18.28
2019-04-19T20:38:40.450Z,18.17
2019-04-19T20:41:08.193Z,18.16
2019-04-19T20:43:48.036Z,18.02
2019-04-19T20:46:09.657Z,17.98
2019-04-19T20:48:33.183Z,18.01
2019-04-19T20:51:08.235Z,17.98
2019-04-19T20:53:38.642Z,17.89
2019-04-19T20:56:30.270Z,17.83
2019-04-19T20:58:38.791Z,17.77
2019-04-19T21:00:58.893Z,17.65
2019-04-19T21:03:32.985Z,17.79
2019-04-19T21:05:56.914Z,17.88
2019-04-19T21:08:30.240Z,17.83
2019-04-19T21:11:02.744Z,17.87
2019-04-19T21:13:31.361Z,17.70
2019-04-19T21:15:58.482Z,17.67
2019-04-19T21:18:29.196Z,17.66
2019-04-19T21:21:06.364Z,17.57
2019-04-19T21:26:23.032Z,17.33
2019-04-19T21:28:49.822Z,17.10
2019-04-19T21:31:36.115Z,17.03
2019-04-19T21:33:52.184Z,16.94
2019-04-19T21:36:19.973Z,16.90
2019-04-19T21:38:56.228Z,17.08
2019-04-19T21:41:23.703Z,17.15
2019-04-19T21:43:49.682Z,16.97
2019-04-19T21:46:20.127Z,17.06
2019-04-19T21:48:48.981Z,16.99
2019-04-19T21:51:21.901Z,17.01
2019-04-19T21:53:48.331Z,16.93
2019-04-19T21:56:17.197Z,16.79
2019-04-19T21:58:47.578Z,16.82
2019-04-19T22:01:17.834Z,16.80
2019-04-19T22:06:34.988Z,16.70
2019-04-19T22:09:08.694Z,16.62
2019-04-19T22:11:32.220Z,16.49
2019-04-19T22:14:00.302Z,16.27
2019-04-19T22:16:35.299Z,16.32
2019-04-19T22:18:59.883Z,16.25
2019-04-19T22:21:33.487Z,16.18
2019-04-19T22:23:58.596Z,16.13
2019-04-19T22:26:34.478Z,16.17
2019-04-19T22:29:01.710Z,16.12
2019-04-19T22:31:32.661Z,15.89
2019-04-19T22:33:56.649Z,15.73
2019-04-19T22:36:25.771Z,15.57
2019-04-19T22:38:58.338Z,15.49
2019-04-19T22:41:26.721Z,15.35
2019-04-19T22:43:56.446Z,15.42
2019-04-19T22:46:23.678Z,15.40
2019-04-19T22:49:00.157Z,15.51
2019-04-19T22:51:24.533Z,15.43
2019-04-19T22:53:52.661Z,15.22
2019-04-19T22:56:34.006Z,15.21
2019-04-19T22:58:58.973Z,15.10
2019-04-19T23:01:31.217Z,14.91
2019-04-19T23:04:00.129Z,14.80
2019-04-19T23:06:27.520Z,14.88
2019-04-19T23:08:52.982Z,14.97
2019-04-19T23:11:23.591Z,15.00
2019-04-19T23:13:51.482Z,14.87
2019-04-19T23:16:21.569Z,14.85
2019-04-19T23:18:56.870Z,14.90
2019-04-19T23:21:24.596Z,15.03
2019-04-19T23:23:55.508Z,14.96
2019-04-19T23:26:46.242Z,14.73
2019-04-19T23:28:53.181Z,14.58
2019-04-19T23:31:22.913Z,14.42
2019-04-19T23:33:57.121Z,14.21
2019-04-19T23:36:22.889Z,14.39
2019-04-19T23:38:47.542Z,14.46
2019-04-19T23:41:21.496Z,14.49
2019-04-19T23:43:47.673Z,14.58
2019-04-19T23:46:26.168Z,14.44
2019-04-19T23:48:54.361Z,14.42
2019-04-19T23:51:21.666Z,14.37
2019-04-19T23:53:50.149Z,14.40
2019-04-19T23:56:29.770Z,14.48
2019-04-19T23:58:52.274Z,14.53
